FW5469 Weather Reports


Display with metric or nautical units.
time (UTC)temp
F
wind
direction
speed
MPH
gust
MPH
rain 1hr
in
rain 24hr
in
rain mn
in
humidity
%
barometer
mb
20230129231600 32 352 4.0 8.0 0.00 0.28 0.28 93 1019.8
20230129230105 32 335 0.0 4.0 0.00 0.28 0.28 93 1019.4
20230129224605 32 7 1.0 5.0 0.00 0.28 0.28 93 1019.2
20230129223101 32 332 1.0 4.0 0.00 0.28 0.28 93 1019.4
20230129221557 32 295 1.0 6.0 0.00 0.28 0.28 93 1019.4
20230129220106 32 296 2.0 5.0 0.00 0.28 0.28 93 1019.4
20230129214601 32 56 2.0 7.0 0.00 0.28 0.28 93 1019.1
20230129213109 32 333 1.0 5.0 0.00 0.28 0.28 93 1019.0
20230129211601 32 319 2.0 6.0 0.00 0.28 0.28 92 1018.7
20230129210104 33 65 1.0 6.0 0.00 0.28 0.28 93 1018.5
20230129204606 33 302 2.0 8.0 0.00 0.29 0.28 92 1018.2
20230129203100 34 82 3.0 6.0 0.01 0.29 0.28 92 1017.8
20230129201602 35 314 2.0 7.0 0.01 0.29 0.28 92 1017.6
20230129200105 36 339 2.0 6.0 0.02 0.29 0.28 92 1017.0
20230129194559 37 359 3.0 6.0 0.02 0.30 0.28 91 1016.5
20230129193102 38 308 2.0 16.0 0.01 0.29 0.27 91 1016.4
20230129191601 42 352 3.0 8.0 0.01 0.29 0.27 92 1016.0
20230129190100 42 269 2.0 6.0 0.00 0.28 0.26 91 1015.7
20230129184601 42 239 2.0 8.0 0.00 0.28 0.26 91 1015.7
20230129183103 42 304 1.0 7.0 0.00 0.28 0.26 91 1015.4
20230129181600 42 210 1.0 8.0 0.00 0.28 0.26 92 1015.5
20230129180102 42 234 1.0 6.0 0.00 0.28 0.26 92 1015.6
20230129174616 42 330 2.0 8.0 0.00 0.28 0.26 91 1015.8
20230129173100 42 219 1.0 11.0 0.00 0.28 0.26 92 1016.0
20230129171608 42 223 3.0 8.0 0.00 0.28 0.26 92 1015.9
20230129170104 42 227 2.0 6.0 0.00 0.28 0.26 92 1016.0
20230129164605 42 202 3.0 9.0 0.00 0.29 0.26 92 1016.0
20230129163134 41 229 2.0 8.0 0.00 0.29 0.26 92 1016.2
20230129161559 41 212 4.0 10.0 0.00 0.29 0.26 92 1016.4
20230129160102 41 223 2.0 11.0 0.00 0.29 0.26 91 1016.3
20230129154605 41 205 3.0 10.0 0.01 0.29 0.26 91 1016.3
20230129153115 41 238 2.0 10.0 0.01 0.29 0.26 91 1016.1
20230129151605 41 177 3.0 8.0 0.02 0.29 0.26 92 1016.0
20230129150103 41 193 4.0 10.0 0.03 0.29 0.26 91 1016.1
20230129144559 41 236 4.0 8.0 0.02 0.28 0.25 91 1016.3
20230129143104 41 250 3.0 11.0 0.03 0.28 0.25 91 1016.2
20230129141618 40 203 4.0 10.0 0.02 0.27 0.24 92 1016.0
20230129140102 40 245 4.0 9.0 0.01 0.26 0.23 92 1016.0
20230129134601 40 221 3.0 11.0 0.02 0.26 0.23 91 1015.7
20230129133105 41 256 4.0 10.0 0.01 0.25 0.22 91 1015.6
20230129131604 41 302 6.0 11.0 0.01 0.25 0.22 91 1015.5
20230129130118 41 230 5.0 12.0 0.02 0.25 0.22 91 1015.5
20230129124616 40 200 5.0 13.0 0.02 0.24 0.21 90 1015.2
20230129123135 40 186 5.0 13.0 0.02 0.24 0.21 91 1015.4
20230129121559 40 222 6.0 13.0 0.04 0.24 0.21 90 1015.3
20230129120105 40 207 4.0 12.0 0.07 0.23 0.20 90 1015.3
20230129114559 40 209 5.0 13.0 0.08 0.22 0.19 90 1015.3
20230129113101 40 251 4.0 12.0 0.09 0.22 0.19 90 1015.1
20230129111613 40 240 6.0 12.0 0.09 0.20 0.17 89 1015.3
20230129110104 40 210 5.0 12.0 0.07 0.16 0.13 89 1015.3
20230129104624 40 179 5.0 14.0 0.06 0.14 0.11 88 1015.6
20230129103107 40 254 5.0 13.0 0.05 0.13 0.10 88 1015.8
20230129101555 41 120 5.0 12.0 0.04 0.11 0.08 87 1016.0
20230129100100 41 172 5.0 13.0 0.04 0.09 0.06 84 1015.9
20230129094558 41 179 3.0 12.0 0.05 0.08 0.05 82 1016.1
20230129093057 41 231 3.0 10.0 0.05 0.08 0.05 82 1016.1
20230129091556 42 236 3.0 11.0 0.04 0.07 0.04 78 1016.3
20230129090100 43 275 4.0 14.0 0.02 0.05 0.02 72 1016.3
20230129084602 45 321 5.0 12.0 0.00 0.03 0.00 63 1016.2
20230129083058 45 198 5.0 14.0 0.00 0.03 0.00 61 1015.9
20230129081558 45 172 4.0 11.0 0.00 0.03 0.00 62 1015.9
20230129080103 44 199 3.0 10.0 0.00 0.03 0.00 63 1015.5
20230129074600 44 221 4.0 8.0 0.00 0.04 0.00 64 1015.8
20230129073058 44 212 3.0 7.0 0.00 0.04 0.00 65 1015.9
20230129071635 43 210 3.0 7.0 0.00 0.04 0.00 65 1016.1
20230129070104 43 224 3.0 7.0 0.00 0.04 0.00 66 1016.1
20230129064558 43 162 3.0 9.0 0.00 0.05 0.00 66 1016.1
20230129063101 43 152 3.0 8.0 0.00 0.05 0.00 66 1016.3
20230129061600 44 171 3.0 9.0 0.00 0.05 0.00 65 1016.7
20230129060106 43 227 2.0 10.0 0.00 0.05 0.00 66 1016.9
20230129054558 43 243 3.0 7.0 0.00 0.05 0.00 67 1017.0
20230129053100 41 219 3.0 7.0 0.00 0.05 0.00 71 1017.2
20230129051602 39 172 3.0 5.0 0.00 0.05 0.00 74 1017.3
20230129050109 37 205 2.0 5.0 0.00 0.05 0.00 79 1017.5
20230129044603 36 146 0.0 2.0 0.00 0.05 0.05 80 1017.6
20230129043059 37 152 1.0 2.0 0.00 0.05 0.05 79 1017.6
20230129041604 37 154 1.0 3.0 0.00 0.05 0.05 79 1017.8
20230129040103 37 180 1.0 3.0 0.00 0.05 0.05 79 1018.0
20230129034601 37 162 2.0 5.0 0.00 0.05 0.05 78 1018.1
20230129033101 37 136 2.0 4.0 0.00 0.05 0.05 79 1018.2
20230129031609 36 148 1.0 3.0 0.00 0.05 0.05 80 1018.5
20230129030103 35 160 1.0 2.0 0.00 0.05 0.05 81 1018.8
20230129024601 35 158 1.0 2.0 0.00 0.05 0.05 82 1019.1
20230129023101 34 179 0.0 2.0 0.00 0.05 0.05 84 1019.2
20230129021608 32 0 0.0 1.0 0.00 0.05 0.05 87 1019.6
20230129020113 32 0 0.0 0.0 0.00 0.05 0.05 86 1019.7
20230129014608 32 0 0.0 0.0 0.00 0.05 0.05 86 1019.9
20230129013105 32 0 0.0 0.0 0.00 0.05 0.05 85 1020.1
20230129011559 33 0 0.0 0.0 0.00 0.05 0.05 84 1020.2
20230129010101 33 0 0.0 0.0 0.00 0.05 0.05 84 1020.4
20230129004608 34 0 0.0 0.0 0.00 0.05 0.05 83 1020.5
20230129003101 34 0 0.0 0.0 0.00 0.05 0.05 82 1020.8
20230129001600 34 0 0.0 0.0 0.00 0.05 0.05 81 1020.8
20230129000106 35 0 0.0 0.0 0.00 0.05 0.05 80 1020.7
20230128234605 35 0 0.0 0.0 0.00 0.05 0.05 78 1020.7
20230128233123 36 0 0.0 0.0 0.00 0.05 0.05 75 1021.0